| time (UTC) | temp C | wind direction | speed KPH | gust KPH | rain 1hr cm | rain 24hr cm | rain mn cm | humidity % | barometer mb |
| 20260506183011 | 18 | 227 | 9.7 | 0.0 | 0.00 | 0.00 | 0.00 | 82 | 1005.0 |
| 20260506182350 | 18 | 189 | 11.3 | 19.3 | 0.00 | 0.00 | 0.00 | 82 | 1005.1 |
| 20260506181558 | 18 | 165 | 9.7 | 0.0 | 0.00 | 0.00 | 0.00 | 82 | 1005.0 |
| 20260506181415 | 18 | 183 | 9.7 | 20.9 | 0.00 | 0.00 | 0.00 | 82 | 1005.1 |
| 20260506180346 | 18 | 236 | 12.9 | 20.9 | 0.00 | 0.00 | 0.00 | 81 | 1005.2 |
| 20260506180036 | 18 | 164 | 9.7 | 0.0 | 0.00 | 0.00 | 0.00 | 81 | 1005.1 |
| 20260506175340 | 18 | 210 | 6.4 | 20.9 | 0.00 | 0.00 | 0.00 | 81 | 1005.2 |
| 20260506174510 | 18 | 162 | 9.7 | 0.0 | 0.00 | 0.00 | 0.00 | 81 | 1005.1 |
| 20260506174355 | 18 | 193 | 8.0 | 17.7 | 0.00 | 0.00 | 0.00 | 81 | 1005.2 |
| 20260506173353 | 18 | 210 | 11.3 | 19.3 | 0.00 | 0.00 | 0.00 | 81 | 1005.3 |
| 20260506173014 | 18 | 213 | 9.7 | 0.0 | 0.00 | 0.00 | 0.00 | 81 | 1005.2 |
| 20260506172348 | 19 | 257 | 14.5 | 22.5 | 0.00 | 0.00 | 0.00 | 80 | 1005.6 |
| 20260506171558 | 19 | 211 | 9.7 | 0.0 | 0.00 | 0.00 | 0.00 | 80 | 1005.5 |
| 20260506171404 | 19 | 181 | 8.0 | 22.5 | 0.00 | 0.00 | 0.00 | 80 | 1005.6 |
| 20260506170355 | 20 | 194 | 9.7 | 22.5 | 0.00 | 0.00 | 0.00 | 79 | 1005.7 |
| 20260506170046 | 19 | 199 | 9.7 | 0.0 | 0.00 | 0.00 | 0.00 | 80 | 1005.6 |
| 20260506165346 | 19 | 180 | 9.7 | 17.7 | 0.00 | 0.00 | 0.00 | 81 | 1005.7 |
| 20260506164535 | 19 | 171 | 8.0 | 0.0 | 0.00 | 0.00 | 0.00 | 81 | 1005.6 |
| 20260506164413 | 19 | 177 | 8.0 | 19.3 | 0.00 | 0.00 | 0.00 | 81 | 1005.7 |
| 20260506163344 | 19 | 181 | 11.3 | 17.7 | 0.00 | 0.00 | 0.00 | 82 | 1006.2 |
| 20260506163111 | 19 | 177 | 8.0 | 0.0 | 0.00 | 0.00 | 0.00 | 82 | 1006.1 |
| 20260506162401 | 20 | 210 | 8.0 | 16.1 | 0.00 | 0.00 | 0.00 | 78 | 1006.6 |
| 20260506161505 | 20 | 192 | 8.0 | 0.0 | 0.00 | 0.00 | 0.00 | 76 | 1006.5 |
| 20260506161404 | 20 | 185 | 8.0 | 19.3 | 0.00 | 0.00 | 0.00 | 76 | 1006.6 |
| 20260506160406 | 21 | 175 | 11.3 | 20.9 | 0.00 | 0.00 | 0.00 | 73 | 1006.7 |
| 20260506160023 | 20 | 191 | 9.7 | 0.0 | 0.00 | 0.00 | 0.00 | 73 | 1006.6 |
| 20260506155342 | 21 | 192 | 8.0 | 20.9 | 0.00 | 0.00 | 0.00 | 73 | 1006.7 |
| 20260506154611 | 20 | 191 | 8.0 | 0.0 | 0.00 | 0.00 | 0.00 | 71 | 1006.6 |
| 20260506154404 | 21 | 145 | 8.0 | 20.9 | 0.00 | 0.00 | 0.00 | 71 | 1006.7 |
| 20260506153353 | 21 | 202 | 8.0 | 20.9 | 0.00 | 0.00 | 0.00 | 70 | 1006.6 |
| 20260506153043 | 20 | 177 | 9.7 | 0.0 | 0.00 | 0.00 | 0.00 | 70 | 1006.5 |
| 20260506152350 | 21 | 232 | 8.0 | 19.3 | 0.00 | 0.00 | 0.00 | 69 | 1006.8 |
| 20260506151515 | 20 | 182 | 9.7 | 0.0 | 0.00 | 0.00 | 0.00 | 69 | 1006.7 |
| 20260506151414 | 21 | 189 | 8.0 | 20.9 | 0.00 | 0.00 | 0.00 | 69 | 1006.8 |
| 20260506150352 | 21 | 194 | 11.3 | 20.9 | 0.00 | 0.00 | 0.00 | 69 | 1006.7 |
| 20260506150108 | 20 | 177 | 9.7 | 0.0 | 0.00 | 0.00 | 0.00 | 69 | 1006.6 |
| 20260506145350 | 21 | 182 | 9.7 | 19.3 | 0.00 | 0.00 | 0.00 | 69 | 1006.8 |
| 20260506144537 | 20 | 209 | 8.0 | 0.0 | 0.00 | 0.00 | 0.00 | 69 | 1006.7 |
| 20260506144350 | 20 | 184 | 8.0 | 16.1 | 0.00 | 0.00 | 0.00 | 69 | 1006.8 |
| 20260506143346 | 20 | 194 | 9.7 | 29.0 | 0.00 | 0.00 | 0.00 | 69 | 1006.7 |
| 20260506143025 | 20 | 178 | 9.7 | 0.0 | 0.00 | 0.00 | 0.00 | 69 | 1006.6 |
| 20260506142344 | 20 | 201 | 8.0 | 19.3 | 0.00 | 0.00 | 0.00 | 69 | 1006.7 |
| 20260506141555 | 20 | 174 | 8.0 | 0.0 | 0.00 | 0.00 | 0.00 | 68 | 1006.6 |
| 20260506141340 | 20 | 192 | 11.3 | 19.3 | 0.00 | 0.00 | 0.00 | 68 | 1006.7 |
| 20260506140354 | 21 | 156 | 14.5 | 27.4 | 0.00 | 0.00 | 0.00 | 67 | 1006.7 |
| 20260506140054 | 20 | 191 | 11.3 | 0.0 | 0.00 | 0.00 | 0.00 | 67 | 1006.6 |
| 20260506135344 | 20 | 212 | 8.0 | 19.3 | 0.00 | 0.00 | 0.00 | 68 | 1006.7 |
| 20260506134535 | 20 | 201 | 8.0 | 0.0 | 0.00 | 0.00 | 0.00 | 69 | 1006.6 |
| 20260506134341 | 20 | 178 | 4.8 | 16.1 | 0.00 | 0.00 | 0.00 | 69 | 1006.7 |
| 20260506133352 | 20 | 203 | 8.0 | 17.7 | 0.00 | 0.00 | 0.00 | 69 | 1006.7 |
| 20260506133036 | 20 | 183 | 8.0 | 0.0 | 0.00 | 0.00 | 0.00 | 69 | 1006.6 |
| 20260506132347 | 20 | 235 | 9.7 | 20.9 | 0.00 | 0.00 | 0.00 | 69 | 1006.7 |
| 20260506131509 | 20 | 155 | 9.7 | 0.0 | 0.00 | 0.00 | 0.00 | 68 | 1006.6 |
| 20260506131344 | 20 | 184 | 8.0 | 22.5 | 0.00 | 0.00 | 0.00 | 69 | 1006.7 |
| 20260506130357 | 20 | 173 | 6.4 | 22.5 | 0.00 | 0.00 | 0.00 | 69 | 1007.0 |
| 20260506130051 | 20 | 173 | 11.3 | 0.0 | 0.00 | 0.00 | 0.00 | 69 | 1006.9 |
| 20260506125353 | 20 | 177 | 9.7 | 24.1 | 0.00 | 0.00 | 0.00 | 69 | 1007.0 |
| 20260506124531 | 20 | 221 | 11.3 | 0.0 | 0.00 | 0.00 | 0.00 | 69 | 1006.9 |
| 20260506124350 | 20 | 210 | 9.7 | 20.9 | 0.00 | 0.00 | 0.00 | 70 | 1007.0 |
| 20260506123342 | 20 | 177 | 9.7 | 24.1 | 0.00 | 0.00 | 0.00 | 71 | 1007.0 |
| 20260506123019 | 20 | 182 | 9.7 | 0.0 | 0.00 | 0.00 | 0.00 | 71 | 1006.8 |
| 20260506122337 | 19 | 181 | 11.3 | 19.3 | 0.00 | 0.00 | 0.00 | 72 | 1007.0 |
| 20260506121501 | 19 | 213 | 9.7 | 0.0 | 0.00 | 0.00 | 0.00 | 73 | 1006.9 |
| 20260506121420 | 19 | 184 | 11.3 | 24.1 | 0.00 | 0.00 | 0.00 | 73 | 1007.0 |
| 20260506120353 | 18 | 168 | 8.0 | 20.9 | 0.00 | 0.00 | 0.00 | 75 | 1007.0 |
| 20260506120057 | 18 | 221 | 8.0 | 0.0 | 0.00 | 0.00 | 0.00 | 76 | 1006.9 |
| 20260506115352 | 18 | 180 | 9.7 | 22.5 | 0.00 | 0.00 | 0.00 | 75 | 1006.9 |
| 20260506114513 | 18 | 160 | 8.0 | 0.0 | 0.00 | 0.00 | 0.00 | 77 | 1006.8 |
| 20260506114353 | 18 | 182 | 8.0 | 17.7 | 0.00 | 0.00 | 0.00 | 76 | 1006.9 |
| 20260506113347 | 18 | 189 | 8.0 | 17.7 | 0.00 | 0.00 | 0.00 | 78 | 1006.8 |
| 20260506113013 | 17 | 195 | 6.4 | 0.0 | 0.00 | 0.00 | 0.00 | 78 | 1006.7 |
| 20260506112414 | 18 | 190 | 6.4 | 17.7 | 0.00 | 0.00 | 0.00 | 78 | 1007.0 |
| 20260506111544 | 17 | 175 | 6.4 | 0.0 | 0.00 | 0.00 | 0.00 | 79 | 1006.9 |
| 20260506111353 | 17 | 199 | 6.4 | 17.7 | 0.00 | 0.00 | 0.00 | 79 | 1007.0 |
| 20260506110350 | 17 | 168 | 4.8 | 16.1 | 0.00 | 0.00 | 0.00 | 80 | 1007.1 |
| 20260506110037 | 17 | 194 | 8.0 | 0.0 | 0.00 | 0.00 | 0.00 | 79 | 1007.0 |
| 20260506105347 | 17 | 154 | 8.0 | 14.5 | 0.00 | 0.00 | 0.00 | 80 | 1006.9 |
| 20260506104503 | 17 | 157 | 6.4 | 0.0 | 0.00 | 0.00 | 0.00 | 80 | 1006.7 |
| 20260506104347 | 17 | 179 | 8.0 | 19.3 | 0.00 | 0.00 | 0.00 | 80 | 1006.9 |
| 20260506103338 | 17 | 209 | 9.7 | 19.3 | 0.00 | 0.00 | 0.00 | 81 | 1006.9 |
| 20260506103104 | 16 | 183 | 6.4 | 0.0 | 0.00 | 0.00 | 0.00 | 81 | 1006.8 |
| 20260506102339 | 17 | 185 | 8.0 | 14.5 | 0.00 | 0.00 | 0.00 | 81 | 1007.0 |
| 20260506101546 | 16 | 171 | 6.4 | 0.0 | 0.00 | 0.00 | 0.00 | 82 | 1006.9 |
| 20260506101407 | 17 | 184 | 4.8 | 14.5 | 0.00 | 0.00 | 0.00 | 81 | 1007.0 |
| 20260506100407 | 17 | 175 | 8.0 | 19.3 | 0.00 | 0.00 | 0.00 | 82 | 1006.7 |
| 20260506100115 | 16 | 177 | 6.4 | 0.0 | 0.00 | 0.00 | 0.00 | 82 | 1006.6 |
| 20260506095343 | 17 | 168 | 6.4 | 19.3 | 0.00 | 0.00 | 0.00 | 82 | 1006.7 |
| 20260506094540 | 16 | 183 | 6.4 | 0.0 | 0.00 | 0.00 | 0.00 | 82 | 1006.6 |
| 20260506094340 | 17 | 166 | 8.0 | 16.1 | 0.00 | 0.00 | 0.00 | 82 | 1006.7 |
| 20260506093338 | 17 | 171 | 6.4 | 17.7 | 0.00 | 0.00 | 0.00 | 82 | 1006.7 |
| 20260506093039 | 17 | 184 | 6.4 | 0.0 | 0.00 | 0.00 | 0.00 | 82 | 1006.5 |
| 20260506092351 | 17 | 207 | 6.4 | 14.5 | 0.00 | 0.00 | 0.00 | 82 | 1006.6 |
| 20260506091554 | 17 | 176 | 8.0 | 0.0 | 0.00 | 0.00 | 0.00 | 82 | 1006.5 |
| 20260506091348 | 17 | 178 | 8.0 | 19.3 | 0.00 | 0.00 | 0.00 | 82 | 1006.6 |
| 20260506090408 | 17 | 194 | 6.4 | 16.1 | 0.00 | 0.00 | 0.00 | 82 | 1006.7 |
| 20260506090041 | 17 | 173 | 8.0 | 0.0 | 0.00 | 0.00 | 0.00 | 82 | 1006.6 |
| 20260506085345 | 17 | 176 | 6.4 | 16.1 | 0.00 | 0.00 | 0.00 | 82 | 1006.8 |
| 20260506084558 | 17 | 179 | 6.4 | 0.0 | 0.00 | 0.00 | 0.00 | 82 | 1006.7 |
| 20260506084342 | 17 | 177 | 4.8 | 17.7 | 0.00 | 0.00 | 0.00 | 82 | 1006.8 |
| 20260506083404 | 17 | 178 | 4.8 | 19.3 | 0.00 | 0.00 | 0.00 | 82 | 1007.1 |
| 20260506083103 | 17 | 176 | 8.0 | 0.0 | 0.00 | 0.00 | 0.00 | 82 | 1006.9 |
| 20260506082408 | 17 | 189 | 9.7 | 17.7 | 0.00 | 0.00 | 0.00 | 82 | 1007.2 |
| 20260506081536 | 17 | 183 | 8.0 | 0.0 | 0.00 | 0.00 | 0.00 | 82 | 1007.0 |
| 20260506081342 | 17 | 191 | 6.4 | 19.3 | 0.00 | 0.00 | 0.00 | 82 | 1007.2 |
| 20260506080354 | 17 | 210 | 6.4 | 19.3 | 0.00 | 0.00 | 0.00 | 82 | 1007.1 |
| 20260506073339 | 17 | 171 | 8.0 | 14.5 | 0.00 | 0.00 | 0.00 | 82 | 1006.9 |
| 20260506073100 | 17 | 194 | 6.4 | 0.0 | 0.00 | 0.00 | 0.00 | 82 | 1006.7 |
| 20260506072416 | 17 | 170 | 8.0 | 16.1 | 0.00 | 0.00 | 0.00 | 82 | 1007.1 |
| 20260506071517 | 17 | 189 | 6.4 | 0.0 | 0.00 | 0.00 | 0.00 | 82 | 1007.0 |
| 20260506071351 | 17 | 208 | 6.4 | 16.1 | 0.00 | 0.00 | 0.00 | 81 | 1007.1 |
| 20260506070412 | 18 | 170 | 6.4 | 17.7 | 0.00 | 0.00 | 0.00 | 81 | 1007.2 |
| 20260506062357 | 18 | 181 | 6.4 | 17.7 | 0.00 | 0.00 | 0.00 | 80 | 1007.2 |
| 20260506061520 | 18 | 173 | 8.0 | 0.0 | 0.00 | 0.00 | 0.00 | 80 | 1007.1 |
| 20260506061351 | 18 | 194 | 6.4 | 14.5 | 0.00 | 0.00 | 0.00 | 80 | 1007.2 |
| 20260506060346 | 18 | 168 | 6.4 | 19.3 | 0.00 | 0.00 | 0.00 | 80 | 1007.2 |
| 20260506051346 | 18 | 199 | 6.4 | 17.7 | 0.00 | 0.00 | 0.00 | 79 | 1007.8 |
| 20260506050409 | 18 | 210 | 6.4 | 14.5 | 0.00 | 0.00 | 0.00 | 79 | 1007.8 |
| 20260506044525 | 18 | 180 | 8.0 | 0.0 | 0.00 | 0.00 | 0.00 | 79 | 1007.6 |
| 20260506044343 | 18 | 174 | 6.4 | 20.9 | 0.00 | 0.00 | 0.00 | 79 | 1007.8 |
| 20260506043351 | 18 | 203 | 6.4 | 14.5 | 0.00 | 0.00 | 0.00 | 78 | 1007.8 |
| 20260506043029 | 18 | 173 | 8.0 | 0.0 | 0.00 | 0.00 | 0.00 | 78 | 1007.7 |
| 20260506042342 | 18 | 184 | 8.0 | 17.7 | 0.00 | 0.00 | 0.00 | 78 | 1007.8 |
| 20260506041610 | 18 | 200 | 8.0 | 0.0 | 0.00 | 0.00 | 0.00 | 78 | 1007.6 |
| 20260506041358 | 18 | 174 | 8.0 | 19.3 | 0.00 | 0.00 | 0.00 | 77 | 1007.8 |
| 20260506040352 | 18 | 163 | 6.4 | 20.9 | 0.00 | 0.00 | 0.00 | 77 | 1007.8 |
| 20260506040005 | 18 | 181 | 8.0 | 0.0 | 0.00 | 0.00 | 0.00 | 77 | 1007.7 |
| 20260506035348 | 18 | 226 | 9.7 | 17.7 | 0.00 | 0.00 | 0.00 | 77 | 1007.8 |
| 20260506034554 | 18 | 187 | 8.0 | 0.0 | 0.00 | 0.00 | 0.00 | 76 | 1007.6 |
| 20260506034414 | 18 | 173 | 6.4 | 14.5 | 0.00 | 0.00 | 0.00 | 76 | 1007.8 |
| 20260506033347 | 19 | 189 | 8.0 | 16.1 | 0.00 | 0.00 | 0.00 | 76 | 1007.8 |
| 20260506033034 | 18 | 203 | 8.0 | 0.0 | 0.00 | 0.00 | 0.00 | 75 | 1007.7 |
| 20260506032341 | 19 | 173 | 8.0 | 14.5 | 0.00 | 0.00 | 0.00 | 75 | 1007.9 |
| 20260506031508 | 18 | 183 | 8.0 | 0.0 | 0.00 | 0.00 | 0.00 | 75 | 1007.7 |
| 20260506031353 | 19 | 180 | 8.0 | 16.1 | 0.00 | 0.00 | 0.00 | 75 | 1007.9 |
| 20260506030414 | 19 | 178 | 8.0 | 20.9 | 0.00 | 0.00 | 0.00 | 74 | 1007.9 |
| 20260506030053 | 19 | 191 | 8.0 | 0.0 | 0.00 | 0.00 | 0.00 | 74 | 1007.8 |
| 20260506025416 | 19 | 196 | 8.0 | 17.7 | 0.00 | 0.00 | 0.00 | 74 | 1008.1 |
| 20260506024505 | 19 | 176 | 9.7 | 0.0 | 0.00 | 0.00 | 0.00 | 73 | 1007.9 |
| 20260506024348 | 19 | 192 | 9.7 | 20.9 | 0.00 | 0.00 | 0.00 | 73 | 1008.1 |
| 20260506023344 | 20 | 201 | 6.4 | 20.9 | 0.00 | 0.00 | 0.00 | 72 | 1007.9 |
| 20260506023009 | 19 | 187 | 8.0 | 0.0 | 0.00 | 0.00 | 0.00 | 72 | 1007.8 |
| 20260506022338 | 20 | 173 | 8.0 | 14.5 | 0.00 | 0.00 | 0.00 | 71 | 1007.9 |
| 20260506021612 | 20 | 180 | 8.0 | 0.0 | 0.00 | 0.00 | 0.00 | 71 | 1007.8 |
| 20260506021337 | 20 | 187 | 8.0 | 14.5 | 0.00 | 0.00 | 0.00 | 70 | 1007.9 |
| 20260506020354 | 20 | 180 | 6.4 | 11.3 | 0.00 | 0.00 | 0.00 | 69 | 1007.8 |
| 20260506015348 | 20 | 175 | 6.4 | 22.5 | 0.00 | 0.00 | 0.00 | 68 | 1007.7 |
| 20260506014530 | 20 | 208 | 8.0 | 0.0 | 0.00 | 0.00 | 0.00 | 68 | 1007.6 |
| 20260506014402 | 20 | 199 | 6.4 | 19.3 | 0.00 | 0.00 | 0.00 | 67 | 1007.7 |
| 20260506013340 | 21 | 202 | 8.0 | 16.1 | 0.00 | 0.00 | 0.00 | 66 | 1007.6 |
| 20260506013013 | 20 | 178 | 8.0 | 0.0 | 0.00 | 0.00 | 0.00 | 66 | 1007.5 |
| 20260506012337 | 21 | 156 | 8.0 | 17.7 | 0.00 | 0.00 | 0.00 | 65 | 1007.4 |
| 20260506011615 | 20 | 174 | 8.0 | 0.0 | 0.00 | 0.00 | 0.00 | 65 | 1007.2 |
| 20260506011338 | 21 | 191 | 9.7 | 19.3 | 0.00 | 0.00 | 0.00 | 65 | 1007.4 |
| 20260506010337 | 21 | 179 | 8.0 | 14.5 | 0.00 | 0.00 | 0.00 | 65 | 1007.3 |
| 20260506010100 | 21 | 180 | 6.4 | 0.0 | 0.00 | 0.00 | 0.00 | 65 | 1007.1 |
| 20260506005357 | 21 | 210 | 8.0 | 20.9 | 0.00 | 0.00 | 0.00 | 65 | 1007.2 |
| 20260506004538 | 21 | 167 | 6.4 | 0.0 | 0.00 | 0.00 | 0.00 | 65 | 1007.1 |
| 20260506004355 | 21 | 203 | 4.8 | 11.3 | 0.00 | 0.00 | 0.00 | 65 | 1007.2 |
| 20260506003353 | 21 | 163 | 4.8 | 17.7 | 0.00 | 0.00 | 0.00 | 65 | 1006.8 |
| 20260506003034 | 21 | 222 | 6.4 | 0.0 | 0.00 | 0.00 | 0.00 | 64 | 1006.7 |
| 20260506002350 | 21 | 168 | 6.4 | 17.7 | 0.00 | 0.00 | 0.00 | 64 | 1006.8 |
| 20260506001503 | 21 | 182 | 8.0 | 0.0 | 0.00 | 0.00 | 0.00 | 64 | 1006.7 |
| 20260506001347 | 21 | 170 | 6.4 | 19.3 | 0.00 | 0.00 | 0.00 | 64 | 1006.8 |
| 20260506000409 | 22 | 208 | 6.4 | 11.3 | 0.00 | 0.00 | 0.00 | 63 | 1006.8 |
| 20260506000049 | 21 | 203 | 6.4 | 0.0 | 0.00 | 0.00 | 0.00 | 62 | 1006.7 |
| 20260505235411 | 22 | 169 | 6.4 | 22.5 | 0.00 | 0.00 | 0.00 | 61 | 1006.7 |
| 20260505234600 | 22 | 168 | 6.4 | 0.0 | 0.00 | 0.00 | 0.00 | 59 | 1006.6 |
| 20260505234349 | 22 | 187 | 6.4 | 17.7 | 0.00 | 0.00 | 0.00 | 59 | 1006.7 |
| 20260505233347 | 23 | 161 | 3.2 | 17.7 | 0.00 | 0.00 | 0.00 | 56 | 1006.5 |
| 20260505233105 | 23 | 177 | 6.4 | 0.0 | 0.00 | 0.00 | 0.00 | 55 | 1006.4 |
| 20260505232344 | 23 | 199 | 9.7 | 16.1 | 0.00 | 0.00 | 0.00 | 54 | 1006.6 |
| 20260505231549 | 23 | 178 | 6.4 | 0.0 | 0.00 | 0.00 | 0.00 | 52 | 1006.4 |
| 20260505231343 | 24 | 199 | 8.0 | 17.7 | 0.00 | 0.00 | 0.00 | 52 | 1006.6 |
| 20260505230404 | 25 | 173 | 8.0 | 16.1 | 0.00 | 0.00 | 0.00 | 49 | 1006.3 |
| 20260505230020 | 25 | 181 | 8.0 | 0.0 | 0.00 | 0.00 | 0.00 | 48 | 1006.2 |
| 20260505225359 | 25 | 173 | 8.0 | 17.7 | 0.00 | 0.00 | 0.00 | 47 | 1006.2 |
| 20260505224520 | 25 | 197 | 8.0 | 0.0 | 0.00 | 0.00 | 0.00 | 44 | 1006.1 |
| 20260505224337 | 26 | 184 | 8.0 | 20.9 | 0.00 | 0.00 | 0.00 | 44 | 1006.3 |
| 20260505223349 | 26 | 227 | 8.0 | 20.9 | 0.00 | 0.00 | 0.00 | 44 | 1006.2 |
| 20260505223031 | 25 | 204 | 9.7 | 0.0 | 0.00 | 0.00 | 0.00 | 44 | 1006.1 |
| 20260505222344 | 26 | 189 | 12.9 | 20.9 | 0.00 | 0.00 | 0.00 | 43 | 1006.2 |
| 20260505221502 | 26 | 179 | 11.3 | 0.0 | 0.00 | 0.00 | 0.00 | 43 | 1006.1 |
| 20260505221400 | 26 | 177 | 9.7 | 22.5 | 0.00 | 0.00 | 0.00 | 44 | 1006.2 |
| 20260505220351 | 27 | 180 | 14.5 | 25.7 | 0.00 | 0.00 | 0.00 | 44 | 1006.2 |
| 20260505220057 | 26 | 184 | 11.3 | 0.0 | 0.00 | 0.00 | 0.00 | 43 | 1006.1 |
| 20260505215344 | 27 | 202 | 14.5 | 27.4 | 0.00 | 0.00 | 0.00 | 43 | 1006.2 |
| 20260505214527 | 27 | 189 | 11.3 | 0.0 | 0.00 | 0.00 | 0.00 | 43 | 1006.0 |
| 20260505214401 | 27 | 199 | 9.7 | 24.1 | 0.00 | 0.00 | 0.00 | 42 | 1006.2 |
| 20260505213349 | 27 | 208 | 6.4 | 22.5 | 0.00 | 0.00 | 0.00 | 41 | 1005.9 |
| 20260505213103 | 27 | 170 | 9.7 | 0.0 | 0.00 | 0.00 | 0.00 | 41 | 1005.8 |
| 20260505212343 | 27 | 174 | 12.9 | 22.5 | 0.00 | 0.00 | 0.00 | 40 | 1005.8 |
| 20260505211548 | 27 | 213 | 11.3 | 0.0 | 0.00 | 0.00 | 0.00 | 39 | 1005.7 |
| 20260505211343 | 28 | 187 | 12.9 | 27.4 | 0.00 | 0.00 | 0.00 | 39 | 1005.8 |
| 20260505210354 | 28 | 116 | 11.3 | 25.7 | 0.00 | 0.00 | 0.00 | 40 | 1005.7 |
| 20260505210050 | 28 | 134 | 11.3 | 0.0 | 0.00 | 0.00 | 0.00 | 39 | 1005.6 |
| 20260505205347 | 28 | 180 | 11.3 | 24.1 | 0.00 | 0.00 | 0.00 | 39 | 1005.7 |
| 20260505204529 | 28 | 191 | 11.3 | 0.0 | 0.00 | 0.00 | 0.00 | 38 | 1005.6 |
| 20260505204345 | 28 | 180 | 12.9 | 24.1 | 0.00 | 0.00 | 0.00 | 38 | 1005.7 |
| 20260505203343 | 28 | 179 | 11.3 | 25.7 | 0.00 | 0.00 | 0.00 | 37 | 1005.7 |
| 20260505203053 | 28 | 170 | 11.3 | 0.0 | 0.00 | 0.00 | 0.00 | 37 | 1005.5 |
| 20260505202342 | 29 | 171 | 9.7 | 25.7 | 0.00 | 0.00 | 0.00 | 38 | 1005.7 |
| 20260505201512 | 28 | 179 | 11.3 | 0.0 | 0.00 | 0.00 | 0.00 | 38 | 1005.6 |
| 20260505201358 | 28 | 177 | 11.3 | 25.7 | 0.00 | 0.00 | 0.00 | 39 | 1005.7 |
| 20260505200351 | 28 | 234 | 9.7 | 24.1 | 0.00 | 0.00 | 0.00 | 40 | 1005.7 |
| 20260505200010 | 28 | 182 | 11.3 | 0.0 | 0.00 | 0.00 | 0.00 | 38 | 1005.6 |
| 20260505195415 | 28 | 204 | 11.3 | 22.5 | 0.00 | 0.00 | 0.00 | 38 | 1005.9 |
| 20260505194530 | 28 | 178 | 11.3 | 0.0 | 0.00 | 0.00 | 0.00 | 38 | 1005.7 |
| 20260505194351 | 28 | 168 | 12.9 | 27.4 | 0.00 | 0.00 | 0.00 | 39 | 1005.9 |
| 20260505193406 | 28 | 156 | 12.9 | 30.6 | 0.00 | 0.00 | 0.00 | 40 | 1006.1 |
| 20260505193000 | 28 | 163 | 12.9 | 0.0 | 0.00 | 0.00 | 0.00 | 40 | 1006.0 |
| 20260505192357 | 28 | 190 | 12.9 | 24.1 | 0.00 | 0.00 | 0.00 | 40 | 1006.2 |
| 20260505191541 | 28 | 208 | 11.3 | 0.0 | 0.00 | 0.00 | 0.00 | 42 | 1006.1 |
| 20260505191352 | 28 | 194 | 14.5 | 25.7 | 0.00 | 0.00 | 0.00 | 41 | 1006.2 |
| 20260505190347 | 28 | 187 | 9.7 | 22.5 | 0.00 | 0.00 | 0.00 | 41 | 1006.6 |
| 20260505190044 | 28 | 173 | 9.7 | 0.0 | 0.00 | 0.00 | 0.00 | 41 | 1006.4 |
| 20260505185342 | 28 | 239 | 8.0 | 19.3 | 0.00 | 0.00 | 0.00 | 42 | 1006.7 |
| 20260505184508 | 28 | 213 | 9.7 | 0.0 | 0.00 | 0.00 | 0.00 | 42 | 1006.6 |
| 20260505184340 | 28 | 193 | 14.5 | 24.1 | 0.00 | 0.00 | 0.00 | 43 | 1006.7 |
| 20260505183356 | 28 | 179 | 8.0 | 17.7 | 0.00 | 0.00 | 0.00 | 45 | 1006.7 |